Pittsburg, NH (03592)

8:35 AM EST on December 06, 2016 (GMT -0500)
Pittsburg village | | Change Station

Elev 1362 ft 45.05 °N, 71.39 °W | Updated 35 seconds ago

Overcast
Overcast
23.8 °F
Feels Like 24 °F
N
0.0
Wind Variable Wind from West
Gusts 2.0 mph

Today
High -- | Low -- °F
--% Chance of Precip.
Yesterday
High -- | Low -- °F
Precip. -- in
Pressure 30.12 in
Visibility 10.0 miles
Clouds Overcast 1400 ft
Windchill 24 °F
Dew Point 21 °F
Humidity 88%
Rainfall 0.00 in
Snow Depth Not available.
7:09 AM 4:03 PM
Waxing Crescent, 42% visible
METAR KBML 061252Z AUTO 30003KT 10SM OVC014 M02/M06 A3007 RMK AO2 SLP199 T10221056
Pressure 30.12 in
Visibility 10.0 miles
Clouds Overcast 1400 ft
Windchill 24 °F
Dew Point 21 °F
Humidity 88%
Rainfall 0.00 in
Snow Depth Not available.
7:09 AM 4:03 PM
Waxing Crescent, 42% visible
METAR KBML 061252Z AUTO 30003KT 10SM OVC014 M02/M06 A3007 RMK AO2 SLP199 T10221056

10-Day Weather Forecast

Almanac

Astronomy

Dec. 06, 2016 Rise Set
Actual Time
Civil Twilight
Nautical Twilight
Astronomical Twilight
Moon
Length of Visible Light
Length of Day
Tomorrow will be .
, % of the Moon is Illuminated

Today's Extremes

State Highs State Lows

Community

WunderPhotos

Upload Photos

1,955,945 photos uploaded!

WunderBlog® & News

Nearby

Air Quality

  Air Quality AQ Index Pollutant
Not available.

Snow Depth

Station Depth Elevation

Earthquake Activity

City Distance Mag. Time & Date
Minimum magnitude displayed is 2.5.

Coastal Water Temperatures

Place Temperature

Stations

Nearby Weather Stations

Station Location Temp. Windchill Dew Point Humidity Wind Precip. Elev Updated Type
                   

Watches & Warnings

There are currently no watches in effect.